Time;durP1;ratioP1;P1;durP2;ratioP2;P2;SDS_P1;SDS_P2;PMS_P1;PMS_P2;Temp;Humidity;BMP_temperature;BMP_pressure;BME280_temperature;BME280_humidity;BME280_pressure;Samples;Min_cycle;Max_cycle;Signal;HPM_P1;HPM_P2
2021/06/22 00:01:48;;;;;;;;;;;;;;;19.34;68.58;100404.41;5118143;28;934;-60
2021/06/22 00:04:14;;;;;;;;;;;;;;;19.55;67.79;100387.53;5119861;28;780;-45
2021/06/22 00:06:39;;;;;;;;;;;;;;;19.56;66.28;100389.13;5120049;28;774;-44
2021/06/22 00:09:05;;;;;;;;;;;;;;;19.55;64.64;100388.31;5119876;28;791;-44
2021/06/22 00:11:30;;;;;;;;;;;;;;;19.51;65.59;100381.78;5101436;28;1905;-62
2021/06/22 00:13:55;;;;;;;;;;;;;;;19.88;66.31;100381.97;5120117;28;803;-61
2021/06/22 00:16:21;;;;;;;;;;;;;;;19.77;66.95;100378.56;5118709;28;1023;-55
2021/06/22 00:18:46;;;;;;;;;;;;;;;19.86;65.50;100360.19;5120133;28;799;-61
2021/06/22 00:21:12;;;;;;;;;;;;;;;19.67;64.65;100360.28;5119640;28;755;-44
2021/06/22 00:23:37;;;;;;;;;;;;;;;19.76;64.23;100365.91;5119283;28;743;-59
2021/06/22 00:26:02;;;;;;;;;;;;;;;19.79;65.99;100365.28;5119649;28;752;-59
2021/06/22 00:28:28;;;;;;;;;;;;;;;19.65;67.06;100359.75;5119672;28;808;-43
2021/06/22 00:30:53;;;;;;;;;;;;;;;19.74;65.21;100360.69;5118915;28;1909;-49
2021/06/22 00:33:19;;;;;;;;;;;;;;;19.72;63.76;100360.16;5119160;28;965;-44
2021/06/22 00:35:44;;;;;;;;;;;;;;;19.72;64.18;100359.34;5119376;28;804;-60
2021/06/22 00:38:10;;;;;;;;;;;;;;;19.76;65.65;100363.94;5118978;28;752;-44
2021/06/22 00:40:35;;;;;;;;;;;;;;;19.71;65.07;100363.22;5119692;28;831;-60
2021/06/22 00:43:01;;;;;;;;;;;;;;;19.45;63.18;100356.25;5100774;28;1098;-58
2021/06/22 00:45:30;;;;;;;;;;;;;;;19.11;64.24;100368.41;5118834;28;760;-60
2021/06/22 00:48:03;;;;;;;;;;;;;;;18.97;66.49;100359.25;5096925;28;2043;-44
2021/06/22 00:50:31;;;;;;;;;;;;;;;19.02;67.78;100361.94;5098612;28;1909;-58
2021/06/22 00:53:06;;;;;;;;;;;;;;;19.46;66.69;100341.34;5098540;28;863;-47
2021/06/22 00:55:32;;;;;;;;;;;;;;;19.11;66.17;100346.34;5099014;28;782;-43
2021/06/22 00:58:03;;;;;;;;;;;;;;;18.83;65.34;100350.06;5097309;28;770;-44
2021/06/22 01:00:28;;;;;;;;;;;;;;;18.71;65.57;100347.78;5098687;28;723;-60
2021/06/22 01:02:55;;;;;;;;;;;;;;;18.92;66.84;100349.13;5112617;28;1008;-58
2021/06/22 01:05:23;;;;;;;;;;;;;;;19.04;67.59;100343.16;5084113;28;1445;-53
2021/06/22 01:07:55;;;;;;;;;;;;;;;19.30;66.53;100342.72;5100569;28;1237;-50
2021/06/22 01:10:24;;;;;;;;;;;;;;;19.24;66.20;100338.44;5100683;28;1989;-58
2021/06/22 01:12:50;;;;;;;;;;;;;;;19.42;66.64;100340.31;5104445;28;1090;-60
2021/06/22 01:15:27;;;;;;;;;;;;;;;19.17;67.07;100324.19;5098529;28;826;-43
2021/06/22 01:17:55;;;;;;;;;;;;;;;18.75;66.20;100322.09;5094369;28;1089;-45
2021/06/22 01:20:22;;;;;;;;;;;;;;;18.63;66.33;100319.81;5118624;28;815;-57
2021/06/22 01:22:48;;;;;;;;;;;;;;;18.87;66.73;100323.56;5118763;28;888;-43
2021/06/22 01:25:14;;;;;;;;;;;;;;;18.86;67.55;100330.19;5118881;28;817;-53
2021/06/22 01:27:40;;;;;;;;;;;;;;;19.10;67.92;100330.94;5118566;28;487;-59
2021/06/22 01:30:06;;;;;;;;;;;;;;;19.25;66.56;100334.53;5100134;28;1982;-60
2021/06/22 01:32:40;;;;;;;;;;;;;;;19.43;66.47;100330.09;5116756;28;970;-60
2021/06/22 01:35:06;;;;;;;;;;;;;;;19.39;66.66;100329.91;5118576;28;813;-60
2021/06/22 01:37:33;;;;;;;;;;;;;;;19.18;65.50;100318.41;5100070;28;1414;-44
2021/06/22 01:40:03;;;;;;;;;;;;;;;18.73;65.06;100315.25;5100597;28;1213;-60
2021/06/22 01:42:28;;;;;;;;;;;;;;;18.90;65.72;100309.22;5100093;28;1130;-56
2021/06/22 01:44:56;;;;;;;;;;;;;;;18.83;66.41;100306.84;5099804;28;1252;-59
2021/06/22 01:47:23;;;;;;;;;;;;;;;19.04;65.74;100314.78;5117754;28;1009;-59
2021/06/22 01:50:18;;;;;;;;;;;;;;;18.76;67.87;100315.47;5099934;28;1914;-56
2021/06/22 01:52:47;;;;;;;;;;;;;;;19.17;66.87;100315.94;5098642;28;1175;-44
2021/06/22 01:57:57;;;;;;;;;;;;;;;18.79;66.11;100316.81;5117632;28;803;-60
2021/06/22 02:00:42;;;;;;;;;;;;;;;18.62;65.83;100331.09;5117768;28;641;-49
2021/06/22 02:03:13;;;;;;;;;;;;;;;18.63;67.01;100336.34;5099391;28;1272;-62
2021/06/22 02:05:39;;;;;;;;;;;;;;;19.01;66.01;100340.19;5099310;28;1304;-52
2021/06/22 02:08:04;;;;;;;;;;;;;;;19.07;65.87;100337.06;5117896;28;795;-52
2021/06/22 02:10:32;;;;;;;;;;;;;;;19.10;66.81;100333.69;5117819;28;1925;-45
2021/06/22 02:13:07;;;;;;;;;;;;;;;18.95;67.18;100348.53;5117333;28;1095;-45
2021/06/22 02:15:35;;;;;;;;;;;;;;;18.93;67.66;100349.97;5099526;28;885;-45
2021/06/22 02:18:02;;;;;;;;;;;;;;;19.15;67.29;100335.53;5116891;28;1025;-49
2021/06/22 02:20:29;;;;;;;;;;;;;;;19.26;67.13;100345.25;5099005;28;1305;-50
2021/06/22 02:22:56;;;;;;;;;;;;;;;19.20;67.24;100342.91;5099626;28;1304;-61
2021/06/22 02:25:22;;;;;;;;;;;;;;;19.14;66.67;100340.22;5117018;28;810;-46
2021/06/22 02:27:48;;;;;;;;;;;;;;;18.89;65.86;100343.41;5098866;28;1117;-61
2021/06/22 02:30:18;;;;;;;;;;;;;;;18.85;64.84;100345.09;5099560;28;1929;-55
2021/06/22 02:32:43;;;;;;;;;;;;;;;18.79;66.48;100347.13;5116952;28;941;-45
2021/06/22 02:35:15;;;;;;;;;;;;;;;18.85;67.70;100336.84;5098573;28;1329;-44
2021/06/22 02:37:42;;;;;;;;;;;;;;;18.96;67.22;100338.34;5099119;28;1172;-45
2021/06/22 02:40:09;;;;;;;;;;;;;;;19.04;67.03;100343.16;5098941;28;1206;-61
2021/06/22 02:42:36;;;;;;;;;;;;;;;19.17;67.80;100337.97;5081860;28;1249;-45
2021/06/22 02:45:11;;;;;;;;;;;;;;;19.27;66.16;100343.34;5116769;28;807;-61
2021/06/22 02:47:37;;;;;;;;;;;;;;;18.93;65.51;100349.97;5095070;28;1341;-61
2021/06/22 02:50:03;;;;;;;;;;;;;;;18.86;66.70;100350.31;5096216;28;1984;-46
2021/06/22 02:52:31;;;;;;;;;;;;;;;18.94;67.45;100343.31;5095349;28;1136;-61
2021/06/22 02:54:56;;;;;;;;;;;;;;;19.08;67.53;100332.34;5095480;28;1528;-61
2021/06/22 02:57:22;;;;;;;;;;;;;;;19.15;66.69;100322.59;5095140;28;1129;-45
2021/06/22 02:59:48;;;;;;;;;;;;;;;19.18;66.60;100325.84;5095228;28;1307;-44
2021/06/22 03:02:13;;;;;;;;;;;;;;;19.41;67.00;100333.16;5104493;28;933;-58
2021/06/22 03:04:39;;;;;;;;;;;;;;;19.40;66.81;100342.53;5116282;28;786;-44
2021/06/22 03:07:07;;;;;;;;;;;;;;;19.39;67.00;100346.44;5098370;28;1895;-44
2021/06/22 03:09:33;;;;;;;;;;;;;;;19.24;68.33;100333.72;5098104;28;1914;-45
2021/06/22 03:11:59;;;;;;;;;;;;;;;19.35;68.01;100339.88;5092493;28;1250;-45
2021/06/22 03:14:31;;;;;;;;;;;;;;;19.49;67.85;100335.22;5077677;28;1278;-59
2021/06/22 03:17:26;;;;;;;;;;;;;;;19.74;67.18;100346.88;5083956;28;1245;-55
2021/06/22 03:19:51;;;;;;;;;;;;;;;19.47;66.57;100342.97;5098243;28;1145;-52
2021/06/22 03:22:20;;;;;;;;;;;;;;;19.46;65.29;100352.38;5098245;28;1150;-54
2021/06/22 03:24:48;;;;;;;;;;;;;;;19.62;65.85;100352.09;5098171;28;1232;-44
2021/06/22 03:27:14;;;;;;;;;;;;;;;19.69;66.87;100349.75;5116609;28;720;-59
2021/06/22 03:29:58;;;;;;;;;;;;;;;19.71;67.02;100350.22;5116144;28;1977;-43
2021/06/22 03:32:25;;;;;;;;;;;;;;;19.68;66.62;100361.88;5115254;28;1214;-58
2021/06/22 03:34:50;;;;;;;;;;;;;;;19.55;67.36;100359.94;5115735;28;990;-56
2021/06/22 03:37:16;;;;;;;;;;;;;;;19.83;67.10;100361.63;5115846;28;771;-61
2021/06/22 03:39:42;;;;;;;;;;;;;;;19.91;66.61;100373.06;5116263;28;763;-49
2021/06/22 03:42:09;;;;;;;;;;;;;;;19.79;65.32;100368.88;5115870;28;1460;-61
2021/06/22 03:44:34;;;;;;;;;;;;;;;19.49;64.25;100373.00;5097929;28;1295;-46
2021/06/22 03:47:03;;;;;;;;;;;;;;;19.52;63.61;100368.81;5097765;28;1165;-48
2021/06/22 03:49:29;;;;;;;;;;;;;;;19.45;64.74;100371.97;5097473;28;1984;-53
2021/06/22 03:51:55;;;;;;;;;;;;;;;19.08;67.27;100369.00;5097816;28;1384;-50
2021/06/22 03:54:21;;;;;;;;;;;;;;;19.45;67.23;100372.78;5115937;28;744;-58
2021/06/22 03:56:46;;;;;;;;;;;;;;;19.40;67.08;100363.78;5115615;28;834;-44
2021/06/22 03:59:21;;;;;;;;;;;;;;;19.60;66.05;100373.63;5115993;28;800;-58
2021/06/22 04:01:47;;;;;;;;;;;;;;;19.64;66.58;100380.16;5115626;28;982;-44
2021/06/22 04:04:13;;;;;;;;;;;;;;;19.65;66.87;100377.09;5080881;28;1121;-58
2021/06/22 04:07:05;;;;;;;;;;;;;;;19.80;67.00;100373.28;5084444;28;1275;-44
2021/06/22 04:09:33;;;;;;;;;;;;;;;19.81;65.24;100380.44;5081636;28;1922;-61
2021/06/22 04:11:59;;;;;;;;;;;;;;;19.81;65.34;100374.91;5113715;28;924;-62
2021/06/22 04:14:25;;;;;;;;;;;;;;;20.08;65.83;100373.28;5097817;28;1272;-58
2021/06/22 04:16:52;;;;;;;;;;;;;;;19.97;66.69;100372.66;5093646;28;1094;-43
2021/06/22 04:19:20;;;;;;;;;;;;;;;19.63;66.39;100376.59;5095093;28;824;-42
2021/06/22 04:21:46;;;;;;;;;;;;;;;19.83;63.86;100380.13;5095928;28;827;-62
2021/06/22 04:24:27;;;;;;;;;;;;;;;19.81;63.23;100382.34;5094825;28;1140;-61
2021/06/22 04:26:53;;;;;;;;;;;;;;;19.94;64.81;100391.78;5095245;28;823;-43
2021/06/22 04:29:19;;;;;;;;;;;;;;;19.86;65.21;100395.25;5094750;28;2047;-45
2021/06/22 04:31:44;;;;;;;;;;;;;;;19.91;65.01;100386.88;5094411;28;1006;-46
2021/06/22 04:34:10;;;;;;;;;;;;;;;20.04;64.68;100383.31;5095670;28;755;-63
2021/06/22 04:36:35;;;;;;;;;;;;;;;20.19;65.81;100390.47;5095805;28;767;-57
2021/06/22 04:39:01;;;;;;;;;;;;;;;20.01;66.03;100397.72;5095540;28;743;-59
2021/06/22 04:41:26;;;;;;;;;;;;;;;20.10;64.43;100404.16;5095085;28;842;-44
2021/06/22 04:43:52;;;;;;;;;;;;;;;20.05;62.88;100393.22;5096058;28;786;-59
2021/06/22 04:46:17;;;;;;;;;;;;;;;19.77;60.61;100401.44;5095766;28;954;-44
2021/06/22 04:48:43;;;;;;;;;;;;;;;19.78;62.62;100396.75;5100891;28;923;-47
2021/06/22 04:51:08;;;;;;;;;;;;;;;20.00;63.28;100404.34;5100964;28;1934;-61
2021/06/22 04:53:34;;;;;;;;;;;;;;;19.55;66.76;100406.81;5119734;28;854;-62
2021/06/22 04:55:59;;;;;;;;;;;;;;;19.70;65.85;100416.75;5119080;28;739;-45
2021/06/22 04:58:25;;;;;;;;;;;;;;;19.94;65.81;100413.88;5119573;28;791;-65
2021/06/22 05:00:50;;;;;;;;;;;;;;;20.24;66.06;100422.66;5119312;28;779;-62
2021/06/22 05:03:15;;;;;;;;;;;;;;;20.16;66.51;100430.53;5118623;28;1016;-45
2021/06/22 05:05:41;;;;;;;;;;;;;;;20.21;64.61;100435.13;5119180;28;819;-61
2021/06/22 05:08:06;;;;;;;;;;;;;;;20.14;60.92;100438.28;5119139;28;808;-45
2021/06/22 05:10:32;;;;;;;;;;;;;;;20.01;59.05;100441.88;5119216;28;1960;-45
2021/06/22 05:12:57;;;;;;;;;;;;;;;19.91;60.18;100444.81;5105239;28;1126;-62
2021/06/22 05:15:23;;;;;;;;;;;;;;;20.08;60.77;100444.25;5098409;28;800;-58
2021/06/22 05:17:48;;;;;;;;;;;;;;;20.18;61.18;100452.31;5111592;28;1495;-45
2021/06/22 05:20:14;;;;;;;;;;;;;;;20.15;62.08;100453.75;5119127;28;865;-44
2021/06/22 05:22:39;;;;;;;;;;;;;;;20.20;62.39;100443.72;5118849;28;808;-46
2021/06/22 05:25:05;;;;;;;;;;;;;;;20.21;62.75;100454.47;5118694;28;843;-60
2021/06/22 05:27:30;;;;;;;;;;;;;;;20.18;63.00;100458.66;5118974;28;756;-44
2021/06/22 05:29:55;;;;;;;;;;;;;;;20.17;63.14;100462.56;5118796;28;1977;-45
2021/06/22 05:32:21;;;;;;;;;;;;;;;20.14;63.61;100459.56;5118621;28;1009;-60
2021/06/22 05:34:46;;;;;;;;;;;;;;;20.31;62.96;100464.47;5118549;28;803;-45
2021/06/22 05:37:12;;;;;;;;;;;;;;;20.34;63.29;100463.88;5118663;28;779;-46
2021/06/22 05:39:37;;;;;;;;;;;;;;;20.34;63.23;100461.94;5118720;28;862;-43
2021/06/22 05:42:03;;;;;;;;;;;;;;;20.41;63.31;100467.06;5118560;28;907;-43
2021/06/22 05:44:29;;;;;;;;;;;;;;;20.42;63.46;100457.63;5118901;28;779;-61
2021/06/22 05:46:54;;;;;;;;;;;;;;;20.26;64.08;100464.56;5118080;28;1020;-43
2021/06/22 05:49:20;;;;;;;;;;;;;;;20.38;63.85;100472.38;5118082;28;1977;-62
2021/06/22 05:51:46;;;;;;;;;;;;;;;20.47;63.91;100470.53;5118559;28;796;-58
2021/06/22 05:54:11;;;;;;;;;;;;;;;20.08;64.63;100478.16;5118541;28;755;-43
2021/06/22 05:56:36;;;;;;;;;;;;;;;20.35;64.67;100476.56;5118061;28;764;-45
2021/06/22 05:59:02;;;;;;;;;;;;;;;20.51;63.92;100477.88;5117789;28;760;-44
2021/06/22 06:01:27;;;;;;;;;;;;;;;20.59;63.77;100473.56;5118132;28;942;-43
2021/06/22 06:03:53;;;;;;;;;;;;;;;20.66;63.79;100470.41;5117804;28;840;-43
2021/06/22 06:06:18;;;;;;;;;;;;;;;20.65;64.03;100469.59;5118193;28;775;-61
2021/06/22 06:08:44;;;;;;;;;;;;;;;20.55;64.38;100468.97;5118345;28;852;-43
2021/06/22 06:11:10;;;;;;;;;;;;;;;20.60;64.58;100471.66;5117903;28;1913;-43
2021/06/22 06:13:36;;;;;;;;;;;;;;;20.54;63.54;100461.81;5118110;28;1194;-43
2021/06/22 06:16:02;;;;;;;;;;;;;;;20.64;63.77;100461.63;5118451;28;1691;-43
2021/06/22 06:18:27;;;;;;;;;;;;;;;20.79;63.59;100460.47;5117220;28;985;-43
2021/06/22 06:20:56;;;;;;;;;;;;;;;20.80;63.92;100462.97;5118000;28;846;-43
2021/06/22 06:23:23;;;;;;;;;;;;;;;20.63;64.70;100454.44;5118394;28;714;-43
2021/06/22 06:25:49;;;;;;;;;;;;;;;20.74;64.59;100452.31;5117934;28;809;-43
2021/06/22 06:28:17;;;;;;;;;;;;;;;20.84;64.24;100460.38;5118095;28;760;-60
2021/06/22 06:30:42;;;;;;;;;;;;;;;20.83;64.39;100465.09;5117733;28;1979;-60
2021/06/22 06:33:09;;;;;;;;;;;;;;;21.01;64.05;100463.31;5117216;28;957;-61
2021/06/22 06:35:34;;;;;;;;;;;;;;;20.98;64.26;100463.09;5117748;28;799;-44
2021/06/22 06:38:00;;;;;;;;;;;;;;;21.03;64.23;100463.81;5099142;28;1195;-62
2021/06/22 06:40:25;;;;;;;;;;;;;;;20.85;64.77;100467.53;5117370;28;811;-64
2021/06/22 06:42:50;;;;;;;;;;;;;;;20.28;64.26;100467.88;5117694;28;838;-43
2021/06/22 06:45:17;;;;;;;;;;;;;;;19.86;63.63;100464.25;5117567;28;743;-43
2021/06/22 06:47:43;;;;;;;;;;;;;;;19.58;62.34;100458.63;5116591;28;958;-44
2021/06/22 06:50:08;;;;;;;;;;;;;;;19.00;62.17;100466.13;5117303;28;1980;-43
2021/06/22 06:52:34;;;;;;;;;;;;;;;18.81;61.42;100458.63;5118032;28;759;-43
2021/06/22 06:54:59;;;;;;;;;;;;;;;18.78;61.32;100459.22;5117045;28;747;-43
2021/06/22 06:57:25;;;;;;;;;;;;;;;18.89;63.14;100459.13;5117170;28;782;-56
2021/06/22 06:59:50;;;;;;;;;;;;;;;19.17;65.55;100459.25;5117167;28;771;-43
2021/06/22 07:02:16;;;;;;;;;;;;;;;19.31;67.41;100458.19;5116602;28;981;-60
2021/06/22 07:04:41;;;;;;;;;;;;;;;19.67;67.45;100459.56;5117022;28;882;-43
2021/06/22 07:07:07;;;;;;;;;;;;;;;19.76;68.04;100457.75;5117060;28;871;-44
2021/06/22 07:09:32;;;;;;;;;;;;;;;19.98;67.76;100450.78;5116574;28;1914;-43
2021/06/22 07:11:58;;;;;;;;;;;;;;;20.04;68.16;100454.25;5110844;28;1147;-43
2021/06/22 07:14:24;;;;;;;;;;;;;;;20.15;66.65;100456.50;5096812;28;751;-43
2021/06/22 07:16:49;;;;;;;;;;;;;;;20.27;66.98;100457.94;5101251;28;1626;-61
2021/06/22 07:19:15;;;;;;;;;;;;;;;20.18;67.82;100455.88;5116769;28;799;-44
2021/06/22 07:21:40;;;;;;;;;;;;;;;20.04;68.52;100463.34;5116833;28;776;-43
2021/06/22 07:24:06;;;;;;;;;;;;;;;20.40;67.31;100470.09;5111457;28;1130;-45
2021/06/22 07:26:35;;;;;;;;;;;;;;;20.33;67.93;100467.78;5077837;28;880;-43
2021/06/22 07:29:00;;;;;;;;;;;;;;;20.37;67.96;100468.81;5096224;28;751;-60
2021/06/22 07:31:26;;;;;;;;;;;;;;;20.41;67.73;100475.34;5097410;28;1910;-62
2021/06/22 07:33:51;;;;;;;;;;;;;;;20.34;68.05;100480.44;5098358;28;930;-50
2021/06/22 07:36:17;;;;;;;;;;;;;;;20.52;67.48;100471.25;5116572;28;811;-44
2021/06/22 07:38:43;;;;;;;;;;;;;;;20.58;67.21;100468.34;5116272;28;811;-45
2021/06/22 07:41:09;;;;;;;;;;;;;;;20.70;66.77;100468.69;5117121;28;736;-56
2021/06/22 07:43:34;;;;;;;;;;;;;;;20.85;66.40;100473.88;5098442;28;776;-64
2021/06/22 07:46:00;;;;;;;;;;;;;;;20.69;66.79;100480.84;5116245;28;783;-44
2021/06/22 07:48:25;;;;;;;;;;;;;;;20.71;66.66;100483.34;5115964;28;962;-65
2021/06/22 07:50:50;;;;;;;;;;;;;;;20.67;66.66;100472.03;5116524;28;1914;-61
2021/06/22 07:53:16;;;;;;;;;;;;;;;20.79;66.02;100483.41;5116559;28;748;-45
2021/06/22 07:55:41;;;;;;;;;;;;;;;20.78;66.04;100479.00;5116156;28;1502;-46
2021/06/22 07:58:07;;;;;;;;;;;;;;;20.36;65.04;100483.72;5116552;28;791;-44
2021/06/22 08:03:04;;;;;;;;;;;;;;;20.56;66.89;100482.47;5115773;28;1021;-59
2021/06/22 08:05:30;;;;;;;;;;;;;;;20.56;67.13;100487.19;5116627;28;823;-60
2021/06/22 08:07:55;;;;;;;;;;;;;;;20.58;66.93;100490.47;5116676;28;836;-66
2021/06/22 08:10:20;;;;;;;;;;;;;;;20.72;66.17;100480.25;5098106;28;1969;-53
2021/06/22 08:12:46;;;;;;;;;;;;;;;20.97;65.49;100486.34;5116629;28;1146;-61
2021/06/22 08:15:12;;;;;;;;;;;;;;;20.85;64.15;100475.84;5116372;28;748;-58
2021/06/22 08:17:37;;;;;;;;;;;;;;;20.51;65.63;100479.84;5115622;28;1081;-53
2021/06/22 08:20:04;;;;;;;;;;;;;;;20.15;66.13;100477.78;5116107;28;778;-42
2021/06/22 08:22:29;;;;;;;;;;;;;;;19.85;65.71;100484.66;5118413;28;751;-45
2021/06/22 08:24:55;;;;;;;;;;;;;;;19.79;64.94;100481.16;5119803;28;1378;-43
2021/06/22 08:27:21;;;;;;;;;;;;;;;19.50;65.11;100482.16;5120289;28;770;-58
2021/06/22 08:29:46;;;;;;;;;;;;;;;19.41;64.88;100475.72;5119677;28;1917;-64
2021/06/22 08:32:11;;;;;;;;;;;;;;;19.43;64.23;100478.97;5119289;28;965;-64
2021/06/22 08:34:37;;;;;;;;;;;;;;;19.34;64.52;100478.84;5119963;28;763;-63
2021/06/22 08:37:03;;;;;;;;;;;;;;;19.38;63.75;100470.81;5119926;28;771;-61
2021/06/22 08:39:28;;;;;;;;;;;;;;;19.14;64.10;100478.03;5119569;28;731;-63
2021/06/22 08:41:53;;;;;;;;;;;;;;;19.01;64.16;100477.97;5120088;28;755;-64
2021/06/22 08:44:19;;;;;;;;;;;;;;;19.09;64.44;100477.28;5119523;28;771;-65
2021/06/22 08:46:45;;;;;;;;;;;;;;;19.20;65.92;100480.72;5119134;28;1051;-62
2021/06/22 08:49:11;;;;;;;;;;;;;;;19.51;66.88;100481.06;5119817;28;763;-46
2021/06/22 08:51:37;;;;;;;;;;;;;;;19.65;68.15;100479.16;5119379;28;1981;-62
2021/06/22 08:54:03;;;;;;;;;;;;;;;19.80;68.51;100483.63;5101252;28;817;-56
2021/06/22 08:56:29;;;;;;;;;;;;;;;19.92;69.11;100479.56;5101647;28;827;-44
2021/06/22 08:58:54;;;;;;;;;;;;;;;20.06;69.17;100474.88;5119354;28;807;-62
2021/06/22 09:01:20;;;;;;;;;;;;;;;20.35;68.83;100477.38;5118644;28;954;-61
2021/06/22 09:03:45;;;;;;;;;;;;;;;20.42;68.68;100476.97;5119592;28;783;-60
2021/06/22 09:06:11;;;;;;;;;;;;;;;20.44;69.12;100473.88;5119254;28;771;-46
2021/06/22 09:08:36;;;;;;;;;;;;;;;20.49;69.15;100477.38;5119095;28;787;-62
2021/06/22 09:11:02;;;;;;;;;;;;;;;20.37;69.97;100482.59;5119036;28;1917;-53
2021/06/22 09:13:27;;;;;;;;;;;;;;;20.61;69.31;100481.56;5101248;28;1182;-44
2021/06/22 09:15:53;;;;;;;;;;;;;;;20.75;68.02;100471.34;5098251;28;1197;-60
2021/06/22 09:18:23;;;;;;;;;;;;;;;20.80;67.72;100479.53;5115976;28;1002;-60
2021/06/22 09:20:48;;;;;;;;;;;;;;;20.81;67.94;100467.34;5118942;28;834;-55
2021/06/22 09:23:17;;;;;;;;;;;;;;;20.83;67.79;100467.84;5119186;28;771;-45
2021/06/22 09:25:43;;;;;;;;;;;;;;;20.52;66.53;100475.94;5118681;28;771;-45
2021/06/22 09:28:09;;;;;;;;;;;;;;;19.88;65.01;100478.53;5119037;28;779;-60
2021/06/22 09:30:37;;;;;;;;;;;;;;;19.25;62.28;100472.34;5118476;28;1992;-62
2021/06/22 09:33:18;;;;;;;;;;;;;;;18.88;60.05;100480.31;5117387;28;1017;-44
2021/06/22 09:35:44;;;;;;;;;;;;;;;18.27;58.94;100481.88;5118947;28;494;-45
2021/06/22 09:38:10;;;;;;;;;;;;;;;18.08;59.63;100474.38;5118528;28;731;-45
2021/06/22 09:40:35;;;;;;;;;;;;;;;18.72;61.11;100471.44;5118688;28;811;-62
2021/06/22 09:43:01;;;;;;;;;;;;;;;19.02;64.06;100474.91;5119054;28;827;-43
2021/06/22 09:45:28;;;;;;;;;;;;;;;19.11;66.35;100467.63;5118194;28;744;-62
2021/06/22 09:47:57;;;;;;;;;;;;;;;19.34;67.26;100467.00;5118137;28;1002;-61
2021/06/22 09:50:41;;;;;;;;;;;;;;;19.51;67.50;100471.97;5118288;28;1917;-61
2021/06/22 09:53:25;;;;;;;;;;;;;;;19.60;68.26;100472.91;5118128;28;812;-44
2021/06/22 09:55:51;;;;;;;;;;;;;;;19.63;68.70;100470.38;5118292;28;799;-61
2021/06/22 09:58:17;;;;;;;;;;;;;;;19.78;68.30;100462.94;5118767;28;795;-44
2021/06/22 10:00:42;;;;;;;;;;;;;;;19.86;68.41;100464.25;5099571;28;1482;-46
2021/06/22 10:03:10;;;;;;;;;;;;;;;19.64;69.32;100462.91;5098989;28;1025;-50
2021/06/22 10:05:48;;;;;;;;;;;;;;;19.79;68.97;100454.41;5118099;28;792;-63
2021/06/22 10:08:14;;;;;;;;;;;;;;;19.81;69.12;100457.69;5118285;28;746;-63
2021/06/22 10:10:39;;;;;;;;;;;;;;;19.98;68.86;100461.81;5118212;28;1909;-44
2021/06/22 10:13:05;;;;;;;;;;;;;;;20.02;68.60;100451.81;5118082;28;1261;-61
2021/06/22 10:15:30;;;;;;;;;;;;;;;19.94;69.44;100455.25;5099468;28;787;-47
2021/06/22 10:17:56;;;;;;;;;;;;;;;20.11;67.42;100461.00;5117528;28;1501;-44
2021/06/22 10:20:21;;;;;;;;;;;;;;;20.02;68.41;100457.31;5099645;28;1221;-63
2021/06/22 10:22:47;;;;;;;;;;;;;;;20.22;68.42;100455.28;5117298;28;751;-64
2021/06/22 10:25:14;;;;;;;;;;;;;;;20.16;68.62;100462.81;5118041;28;763;-45
2021/06/22 10:27:43;;;;;;;;;;;;;;;20.25;68.69;100449.16;5117739;28;787;-55
2021/06/22 10:30:10;;;;;;;;;;;;;;;20.27;68.73;100460.69;5099066;28;1913;-46
2021/06/22 10:32:36;;;;;;;;;;;;;;;20.62;67.52;100452.81;5117247;28;1024;-44
2021/06/22 10:35:06;;;;;;;;;;;;;;;20.64;67.61;100450.56;5099905;28;894;-57
2021/06/22 10:37:47;;;;;;;;;;;;;;;20.50;68.37;100439.53;5117209;28;858;-58
2021/06/22 10:40:13;;;;;;;;;;;;;;;20.34;66.88;100445.38;5099350;28;941;-46
2021/06/22 10:42:42;;;;;;;;;;;;;;;20.27;67.71;100441.38;5117237;28;891;-54
2021/06/22 10:45:08;;;;;;;;;;;;;;;20.40;68.34;100435.03;5116779;28;819;-61
2021/06/22 10:47:34;;;;;;;;;;;;;;;20.46;68.51;100433.00;5117473;28;966;-45
2021/06/22 10:50:00;;;;;;;;;;;;;;;20.56;68.32;100435.53;5117052;28;1913;-61
2021/06/22 10:52:41;;;;;;;;;;;;;;;20.63;68.40;100437.88;5116925;28;863;-45
2021/06/22 10:55:27;;;;;;;;;;;;;;;20.75;68.11;100434.59;5117579;28;795;-49
2021/06/22 10:58:01;;;;;;;;;;;;;;;20.34;66.30;100436.25;5085258;28;1070;-46
2021/06/22 11:00:39;;;;;;;;;;;;;;;20.11;64.22;100427.06;5117070;28;803;-61
2021/06/22 11:03:06;;;;;;;;;;;;;;;19.39;63.76;100434.66;5116475;28;1075;-46
2021/06/22 11:05:31;;;;;;;;;;;;;;;19.12;62.93;100425.13;5116772;28;875;-62
2021/06/22 11:08:12;;;;;;;;;;;;;;;19.20;61.18;100420.91;5117075;28;842;-45
2021/06/22 11:10:47;;;;;;;;;;;;;;;18.96;60.75;100426.50;5116881;28;1977;-61
2021/06/22 11:13:32;;;;;;;;;;;;;;;18.88;61.47;100424.41;5100527;28;972;-44
2021/06/22 11:16:01;;;;;;;;;;;;;;;19.08;62.11;100423.28;5095923;28;1528;-44
2021/06/22 11:18:27;;;;;;;;;;;;;;;19.16;63.66;100419.84;5114871;28;1026;-62
2021/06/22 11:20:55;;;;;;;;;;;;;;;19.30;64.90;100414.41;5116713;28;795;-44
2021/06/22 11:23:23;;;;;;;;;;;;;;;19.31;66.26;100413.28;5116715;28;835;-45
2021/06/22 11:25:50;;;;;;;;;;;;;;;19.31;67.09;100416.03;5116511;28;809;-63
2021/06/22 11:28:16;;;;;;;;;;;;;;;19.47;67.05;100414.69;5116588;28;867;-44
2021/06/22 11:30:55;;;;;;;;;;;;;;;19.68;66.62;100414.28;5116479;28;1905;-61
2021/06/22 11:33:47;;;;;;;;;;;;;;;19.66;67.19;100411.03;5116129;28;958;-44
2021/06/22 11:36:15;;;;;;;;;;;;;;;19.65;67.42;100404.69;5116623;28;736;-48
2021/06/22 11:38:41;;;;;;;;;;;;;;;19.68;67.80;100414.28;5116597;28;724;-44
2021/06/22 11:41:13;;;;;;;;;;;;;;;19.56;68.40;100416.72;5116941;28;858;-44
2021/06/22 11:43:57;;;;;;;;;;;;;;;19.83;67.78;100410.47;5116351;28;799;-64
2021/06/22 11:46:26;;;;;;;;;;;;;;;19.96;67.38;100406.94;5116148;28;1005;-46
2021/06/22 11:48:57;;;;;;;;;;;;;;;19.83;68.27;100396.69;5098651;28;741;-63
2021/06/22 11:51:41;;;;;;;;;;;;;;;20.10;67.77;100397.81;5115988;28;1905;-44
2021/06/22 11:54:07;;;;;;;;;;;;;;;20.26;67.55;100401.06;5116381;28;755;-59
2021/06/22 11:56:33;;;;;;;;;;;;;;;20.12;68.02;100404.69;5118053;28;787;-61
2021/06/22 11:59:02;;;;;;;;;;;;;;;20.13;68.10;100394.44;5120590;28;732;-45
2021/06/22 12:01:27;;;;;;;;;;;;;;;20.18;67.96;100388.81;5120216;28;1013;-65
2021/06/22 12:03:53;;;;;;;;;;;;;;;20.23;67.65;100393.41;5101741;28;934;-62
2021/06/22 12:06:20;;;;;;;;;;;;;;;20.12;68.02;100401.91;5120502;28;976;-45
2021/06/22 12:08:46;;;;;;;;;;;;;;;20.14;68.10;100405.16;5120566;28;863;-54
2021/06/22 12:11:13;;;;;;;;;;;;;;;20.07;68.36;100415.81;5119994;28;1917;-62
2021/06/22 12:13:42;;;;;;;;;;;;;;;19.82;69.15;100420.72;5100122;28;1334;-60
2021/06/22 12:16:14;;;;;;;;;;;;;;;19.97;68.85;100422.34;5081427;28;1182;-54
2021/06/22 12:18:40;;;;;;;;;;;;;;;19.72;67.46;100431.88;5065188;28;1289;-57
2021/06/22 12:21:05;;;;;;;;;;;;;;;19.76;67.04;100427.38;5099630;28;783;-47
2021/06/22 12:23:31;;;;;;;;;;;;;;;19.79;67.98;100424.06;5081221;28;1232;-48
2021/06/22 12:25:57;;;;;;;;;;;;;;;19.84;68.08;100431.44;5099411;28;763;-61
2021/06/22 12:28:24;;;;;;;;;;;;;;;19.92;68.16;100435.41;5099473;28;832;-45
2021/06/22 12:30:50;;;;;;;;;;;;;;;20.03;67.70;100428.56;5099721;28;1918;-61
2021/06/22 12:33:19;;;;;;;;;;;;;;;20.08;67.49;100431.25;5116163;28;982;-44
2021/06/22 12:35:46;;;;;;;;;;;;;;;20.15;67.46;100439.94;5119774;28;752;-45
2021/06/22 12:38:12;;;;;;;;;;;;;;;20.23;67.09;100435.66;5120071;28;855;-49
2021/06/22 12:40:46;;;;;;;;;;;;;;;20.01;67.79;100433.59;5119771;28;767;-55
2021/06/22 12:43:12;;;;;;;;;;;;;;;19.99;67.81;100433.91;5119763;28;759;-49
2021/06/22 12:45:38;;;;;;;;;;;;;;;20.05;67.52;100431.03;5119608;28;833;-61
2021/06/22 12:48:04;;;;;;;;;;;;;;;20.21;67.06;100437.91;5119349;28;966;-54
2021/06/22 12:50:30;;;;;;;;;;;;;;;20.16;67.20;100436.06;5119941;28;1985;-44
2021/06/22 12:52:56;;;;;;;;;;;;;;;20.21;67.07;100442.59;5101491;28;791;-60
2021/06/22 12:55:35;;;;;;;;;;;;;;;20.28;66.72;100437.50;5084197;28;1371;-59
2021/06/22 12:58:01;;;;;;;;;;;;;;;20.10;67.35;100437.28;5119314;28;747;-44
2021/06/22 13:00:35;;;;;;;;;;;;;;;20.08;67.60;100428.50;5101117;28;796;-59